Time;durP1;ratioP1;P1;durP2;ratioP2;P2;SDS_P1;SDS_P2;PMS_P1;PMS_P2;Temp;Humidity;BMP_temperature;BMP_pressure;BME280_temperature;BME280_humidity;BME280_pressure;Samples;Min_cycle;Max_cycle;Signal;HPM_P1;HPM_P2
2023/04/09 00:01:21;;;;;;;;;35.25;28.50;;;;;10.27;74.13;102634.97;4992054;28;11603;-66
2023/04/09 00:03:47;;;;;;;;;28.25;28.25;;;;;10.26;74.19;102630.59;5010437;28;11704;-67
2023/04/09 00:06:14;;;;;;;;;39.00;33.50;;;;;10.25;74.18;102631.59;5008712;28;11182;-65
2023/04/09 00:08:43;;;;;;;;;40.00;31.50;;;;;10.22;74.17;102633.69;4990290;28;11603;-66
2023/04/09 00:11:09;;;;;;;;;40.75;36.50;;;;;10.20;74.40;102628.44;5010640;28;11579;-67
2023/04/09 00:13:36;;;;;;;;;37.75;35.25;;;;;10.19;74.70;102623.22;5009422;28;11707;-66
2023/04/09 00:16:05;;;;;;;;;36.75;33.75;;;;;10.22;74.60;102621.09;5008297;28;11623;-65
2023/04/09 00:18:32;;;;;;;;;37.00;31.25;;;;;10.26;74.13;102622.53;4999307;28;11577;-65
2023/04/09 00:20:58;;;;;;;;;30.00;27.50;;;;;10.14;74.56;102629.91;4991752;28;12371;-65
2023/04/09 00:23:25;;;;;;;;;45.25;38.25;;;;;10.12;75.09;102623.78;5005999;28;11727;-65
2023/04/09 00:25:51;;;;;;;;;42.75;38.25;;;;;10.11;74.88;102624.81;5010235;28;11689;-65
2023/04/09 00:28:18;;;;;;;;;37.00;32.50;;;;;10.16;74.46;102618.97;5000908;28;11684;-65
2023/04/09 00:30:44;;;;;;;;;39.50;33.00;;;;;10.09;74.79;102613.34;5013263;28;11554;-65
2023/04/09 00:33:11;;;;;;;;;36.50;34.00;;;;;10.09;74.61;102617.88;5013335;28;11253;-66
2023/04/09 00:35:37;;;;;;;;;40.00;37.00;;;;;10.02;74.77;102614.94;5010268;28;11331;-65
2023/04/09 00:38:04;;;;;;;;;36.00;34.25;;;;;10.00;75.04;102611.53;4993164;28;11691;-65
2023/04/09 00:40:30;;;;;;;;;37.50;28.25;;;;;10.00;74.95;102608.84;5011110;28;11571;-65
2023/04/09 00:42:57;;;;;;;;;36.00;33.00;;;;;9.98;75.10;102607.31;5013349;28;11647;-65
2023/04/09 00:45:23;;;;;;;;;39.75;35.25;;;;;9.99;75.17;102604.47;5012098;28;11686;-65
2023/04/09 00:47:51;;;;;;;;;55.00;39.50;;;;;9.97;75.61;102603.78;5005355;28;11557;-65
2023/04/09 00:50:17;;;;;;;;;37.50;35.75;;;;;9.98;75.00;102601.94;4993329;28;11564;-66
2023/04/09 00:52:44;;;;;;;;;42.00;35.25;;;;;10.06;75.22;102602.88;4993984;28;11623;-66
2023/04/09 00:55:11;;;;;;;;;33.75;31.00;;;;;10.05;75.10;102600.34;5011298;28;11336;-66
2023/04/09 00:57:38;;;;;;;;;38.00;30.75;;;;;10.03;74.76;102592.41;5010865;28;11555;-67
2023/04/09 01:00:06;;;;;;;;;38.50;37.75;;;;;10.06;74.81;102591.28;5006507;28;11568;-65
2023/04/09 01:02:33;;;;;;;;;42.50;35.50;;;;;10.04;75.25;102595.94;5010617;28;12204;-66
2023/04/09 01:05:00;;;;;;;;;45.50;33.50;;;;;10.07;74.94;102592.97;5010481;28;11585;-66
2023/04/09 01:07:35;;;;;;;;;47.50;41.50;;;;;10.06;75.03;102586.72;5004691;28;11564;-65
2023/04/09 01:10:27;;;;;;;;;47.25;37.75;;;;;9.99;75.56;102587.47;4989466;28;11714;-65
2023/04/09 01:13:19;;;;;;;;;43.50;37.25;;;;;9.95;75.59;102580.69;4995546;28;11804;-65
2023/04/09 01:15:50;;;;;;;;;47.75;35.75;;;;;9.91;75.80;102588.19;5010735;28;11560;-65
2023/04/09 01:18:36;;;;;;;;;48.25;37.25;;;;;9.90;75.97;102581.97;4992257;28;11584;-66
2023/04/09 01:21:12;;;;;;;;;41.25;39.50;;;;;9.80;75.71;102580.31;4994782;28;11599;-65
2023/04/09 01:24:07;;;;;;;;;42.00;35.25;;;;;9.71;76.12;102582.03;5012767;28;11559;-65
2023/04/09 01:26:53;;;;;;;;;35.50;32.25;;;;;9.71;76.14;102584.72;4996124;28;11691;-65
2023/04/09 01:29:24;;;;;;;;;34.25;32.00;;;;;9.71;76.53;102583.88;4989882;28;11554;-65
2023/04/09 01:31:53;;;;;;;;;40.50;31.50;;;;;9.72;76.17;102589.09;4996318;28;11708;-66
2023/04/09 01:34:20;;;;;;;;;41.25;30.00;;;;;9.74;76.08;102587.13;5009438;28;11680;-66
2023/04/09 01:36:55;;;;;;;;;38.50;34.25;;;;;9.74;76.26;102583.59;5012841;28;11582;-65
2023/04/09 01:39:22;;;;;;;;;38.25;32.25;;;;;9.78;76.48;102583.16;4992210;28;11626;-65
2023/04/09 01:41:50;;;;;;;;;39.25;31.00;;;;;9.87;76.12;102579.56;5012461;28;11547;-66
2023/04/09 01:44:18;;;;;;;;;27.50;23.75;;;;;9.98;76.27;102591.16;5012811;28;11377;-66
2023/04/09 01:46:48;;;;;;;;;42.50;28.50;;;;;10.03;76.11;102586.19;5013330;28;12049;-66
2023/04/09 01:49:16;;;;;;;;;32.75;30.50;;;;;10.09;75.73;102588.28;5009748;28;11274;-66
2023/04/09 01:51:43;;;;;;;;;43.00;38.00;;;;;10.06;74.70;102586.72;5007523;28;11323;-66
2023/04/09 01:54:09;;;;;;;;;35.00;35.00;;;;;10.04;74.71;102590.56;5007111;28;11720;-66
2023/04/09 01:56:45;;;;;;;;;41.00;35.00;;;;;10.01;74.59;102582.81;4995482;28;11333;-66
2023/04/09 01:59:12;;;;;;;;;39.50;32.50;;;;;10.00;74.95;102583.78;5012761;28;12074;-65
2023/04/09 02:01:51;;;;;;;;;38.00;36.25;;;;;9.96;74.62;102593.13;4991430;28;11341;-65
2023/04/09 02:04:33;;;;;;;;;36.25;34.00;;;;;9.93;74.44;102598.84;4992027;28;11383;-65
2023/04/09 02:07:18;;;;;;;;;29.75;21.25;;;;;9.89;74.13;102591.06;4994058;28;11570;-66
2023/04/09 02:09:47;;;;;;;;;34.50;30.00;;;;;9.86;74.65;102590.50;5012242;28;11553;-66
2023/04/09 02:12:17;;;;;;;;;39.25;32.50;;;;;9.89;74.66;102587.50;5004670;28;11603;-65
2023/04/09 02:14:50;;;;;;;;;46.25;34.75;;;;;9.88;74.33;102586.69;4993360;28;11700;-65
2023/04/09 02:17:18;;;;;;;;;44.00;35.50;;;;;9.90;74.76;102587.34;4994528;28;11576;-66
2023/04/09 02:19:46;;;;;;;;;35.25;35.25;;;;;9.83;74.49;102586.25;5011424;28;11624;-66
2023/04/09 02:22:14;;;;;;;;;39.00;33.00;;;;;9.83;74.33;102588.09;5008655;28;11671;-65
2023/04/09 02:24:41;;;;;;;;;31.75;26.50;;;;;9.83;74.44;102586.25;4992320;28;11572;-66
2023/04/09 02:27:09;;;;;;;;;39.50;37.25;;;;;9.87;74.56;102584.09;4995185;28;11329;-66
2023/04/09 02:29:38;;;;;;;;;34.75;28.00;;;;;9.87;74.65;102574.19;4994439;28;11565;-66
2023/04/09 02:32:05;;;;;;;;;38.00;34.25;;;;;9.91;74.54;102580.13;5003685;28;11241;-66
2023/04/09 02:34:31;;;;;;;;;32.75;30.00;;;;;9.97;74.27;102587.63;4992625;28;11598;-66
2023/04/09 02:36:58;;;;;;;;;54.50;37.75;;;;;9.94;73.22;102582.53;5005093;28;12008;-66
2023/04/09 02:39:26;;;;;;;;;47.00;39.50;;;;;9.78;73.17;102574.25;5008610;28;11554;-66
2023/04/09 02:41:52;;;;;;;;;50.75;34.75;;;;;9.76;74.58;102574.38;4994553;28;11599;-67
2023/04/09 02:44:19;;;;;;;;;37.50;33.00;;;;;9.79;74.03;102562.47;5011402;28;12379;-66
2023/04/09 02:46:47;;;;;;;;;35.50;30.00;;;;;9.81;73.63;102568.56;4976772;28;11600;-66
2023/04/09 02:49:13;;;;;;;;;41.00;35.75;;;;;9.79;74.23;102563.31;4993774;28;11600;-66
2023/04/09 02:51:40;;;;;;;;;39.00;34.50;;;;;9.77;73.96;102568.03;5004630;28;11654;-67
2023/04/09 02:54:06;;;;;;;;;44.25;39.25;;;;;9.69;73.84;102567.91;4986755;28;11565;-67
2023/04/09 02:56:33;;;;;;;;;43.00;36.75;;;;;9.69;74.09;102567.06;4998024;28;11556;-66
2023/04/09 02:58:59;;;;;;;;;43.50;39.50;;;;;9.66;73.80;102560.13;5000246;28;11571;-66
2023/04/09 03:01:26;;;;;;;;;47.75;38.50;;;;;9.57;74.17;102561.00;4994347;28;11642;-65
2023/04/09 03:03:53;;;;;;;;;38.25;32.25;;;;;9.61;75.31;102557.03;4993195;28;12291;-66
2023/04/09 03:06:20;;;;;;;;;35.50;30.50;;;;;9.68;74.43;102554.59;5008763;28;11703;-66
2023/04/09 03:08:46;;;;;;;;;40.25;32.75;;;;;9.65;74.76;102553.91;4977239;28;11689;-66
2023/04/09 03:11:13;;;;;;;;;32.25;30.25;;;;;9.71;74.50;102551.63;5009332;28;11667;-66
2023/04/09 03:13:39;;;;;;;;;39.00;32.00;;;;;9.76;74.61;102550.16;5006937;28;11548;-66
2023/04/09 03:16:09;;;;;;;;;34.00;33.75;;;;;9.80;74.76;102546.22;4990708;28;11596;-66
2023/04/09 03:18:35;;;;;;;;;34.25;29.00;;;;;9.87;74.01;102544.59;4991964;28;11540;-65
2023/04/09 03:21:06;;;;;;;;;36.50;31.50;;;;;9.94;74.13;102542.19;4991892;28;11624;-65
2023/04/09 03:23:36;;;;;;;;;37.75;29.25;;;;;9.96;73.77;102547.41;4974798;28;11295;-66
2023/04/09 03:26:05;;;;;;;;;34.50;30.50;;;;;9.97;73.59;102541.06;4990816;28;11386;-65
2023/04/09 03:28:41;;;;;;;;;39.75;34.75;;;;;9.99;73.68;102534.50;4972648;28;11349;-66
2023/04/09 03:31:08;;;;;;;;;33.00;28.75;;;;;10.02;73.46;102539.59;4988122;28;11552;-66
2023/04/09 03:33:38;;;;;;;;;33.25;31.00;;;;;10.00;73.55;102521.91;4993837;28;11326;-65
2023/04/09 03:36:06;;;;;;;;;36.50;30.00;;;;;9.99;73.56;102528.28;5006748;28;11581;-66
2023/04/09 03:38:44;;;;;;;;;43.00;39.25;;;;;9.86;73.85;102521.41;4975918;28;11603;-66
2023/04/09 03:41:22;;;;;;;;;42.75;34.50;;;;;9.83;73.89;102524.38;4993799;28;11566;-66
2023/04/09 03:43:50;;;;;;;;;38.75;33.75;;;;;9.79;73.81;102517.59;4992529;28;11575;-66
2023/04/09 03:46:21;;;;;;;;;35.25;31.50;;;;;9.79;73.87;102516.75;5006001;28;11194;-65
2023/04/09 03:48:48;;;;;;;;;38.00;33.00;;;;;9.83;74.09;102521.69;5009720;28;11550;-65
2023/04/09 03:51:15;;;;;;;;;40.25;31.75;;;;;9.87;73.95;102515.03;5010985;28;11336;-65
2023/04/09 03:53:48;;;;;;;;;35.75;28.75;;;;;9.87;73.95;102514.19;4993184;28;11674;-65
2023/04/09 03:56:15;;;;;;;;;28.75;27.75;;;;;9.88;73.56;102514.03;4991766;28;11253;-65
2023/04/09 03:58:41;;;;;;;;;45.25;32.00;;;;;9.86;73.94;102521.41;4986363;28;11533;-66
2023/04/09 04:01:11;;;;;;;;;32.00;26.75;;;;;9.89;73.63;102512.19;5009450;28;11917;-64
2023/04/09 04:03:47;;;;;;;;;37.00;32.75;;;;;9.80;74.30;102515.75;4986071;28;11105;-65
2023/04/09 04:06:20;;;;;;;;;34.75;30.00;;;;;9.81;74.59;102504.88;4992973;28;11566;-66
2023/04/09 04:09:12;;;;;;;;;38.75;34.25;;;;;9.86;73.79;102507.97;4982989;28;11417;-65
2023/04/09 04:11:45;;;;;;;;;40.00;31.50;;;;;9.87;74.35;102506.09;4993113;28;12367;-66
2023/04/09 04:14:12;;;;;;;;;34.50;26.75;;;;;9.89;74.52;102502.28;4992201;28;11112;-65
2023/04/09 04:16:41;;;;;;;;;27.00;21.25;;;;;9.91;73.92;102499.44;4992123;28;11176;-67
2023/04/09 04:19:09;;;;;;;;;29.50;26.50;;;;;9.94;73.76;102501.84;5005158;28;11177;-65
2023/04/09 04:21:41;;;;;;;;;43.00;34.25;;;;;9.87;73.65;102503.41;4992388;28;11196;-65
2023/04/09 04:24:08;;;;;;;;;35.25;31.00;;;;;9.85;73.69;102506.28;4992786;28;12334;-65
2023/04/09 04:26:34;;;;;;;;;34.75;28.25;;;;;9.82;73.68;102513.78;4993000;28;11616;-65
2023/04/09 04:29:01;;;;;;;;;31.50;29.25;;;;;9.85;74.23;102505.44;4987585;28;11550;-65
2023/04/09 04:31:42;;;;;;;;;35.00;29.00;;;;;9.86;74.02;102504.41;4991611;28;11569;-66
2023/04/09 04:34:10;;;;;;;;;25.75;23.25;;;;;9.89;74.57;102504.13;5015756;23;11548;-68
2023/04/09 04:36:37;;;;;;;;;30.25;27.75;;;;;9.90;73.62;102500.44;5012437;28;11289;-67
2023/04/09 04:39:06;;;;;;;;;31.25;28.75;;;;;9.87;74.28;102503.41;5011620;28;11278;-68
2023/04/09 04:41:46;;;;;;;;;34.50;24.75;;;;;9.89;74.03;102501.44;5012611;28;11495;-68
2023/04/09 04:44:18;;;;;;;;;42.25;37.00;;;;;9.89;73.85;102504.97;5016305;28;11528;-67
2023/04/09 04:46:46;;;;;;;;;43.00;34.50;;;;;9.95;74.23;102508.91;5014994;28;11546;-68
2023/04/09 04:49:12;;;;;;;;;34.50;28.75;;;;;9.99;74.02;102507.59;5019840;28;12271;-68
2023/04/09 04:51:45;;;;;;;;;33.00;29.00;;;;;10.01;74.05;102512.84;5028965;28;11519;-69
2023/04/09 04:54:14;;;;;;;;;32.25;25.00;;;;;10.01;73.89;102510.16;5023236;28;11670;-68
2023/04/09 04:56:48;;;;;;;;;39.75;32.50;;;;;9.99;73.64;102506.75;5009632;28;10982;-69
2023/04/09 04:59:29;;;;;;;;;30.00;24.25;;;;;9.99;73.57;102507.59;5019372;28;11332;-69
2023/04/09 05:02:01;;;;;;;;;42.75;35.25;;;;;9.95;73.68;102510.75;5021956;28;11538;-68
2023/04/09 05:04:32;;;;;;;;;30.75;29.25;;;;;9.91;73.67;102519.09;5023791;28;11257;-69
2023/04/09 05:06:59;;;;;;;;;38.50;28.75;;;;;9.89;74.22;102506.81;5010220;28;11338;-69
2023/04/09 05:09:25;;;;;;;;;34.50;28.25;;;;;9.96;73.88;102513.28;5018114;28;11339;-69
2023/04/09 05:12:00;;;;;;;;;31.00;26.75;;;;;10.00;73.81;102514.66;5028683;28;11146;-69
2023/04/09 05:14:27;;;;;;;;;33.50;26.75;;;;;10.04;73.81;102512.53;5023700;28;11155;-69
2023/04/09 05:16:54;;;;;;;;;38.00;31.75;;;;;10.02;73.56;102517.22;5017945;28;11333;-69
2023/04/09 05:19:24;;;;;;;;;35.25;28.50;;;;;10.03;73.58;102518.91;5012455;28;11594;-70
2023/04/09 05:21:57;;;;;;;;;26.00;23.00;;;;;10.02;73.92;102523.47;5008921;28;11297;-68
2023/04/09 05:24:23;;;;;;;;;25.00;25.00;;;;;10.03;73.98;102527.00;4995809;28;11393;-68
2023/04/09 05:26:50;;;;;;;;;47.25;35.00;;;;;10.03;73.76;102524.31;5024482;28;11170;-69
2023/04/09 05:29:16;;;;;;;;;33.00;28.00;;;;;10.00;73.59;102521.91;5026986;28;11230;-70
2023/04/09 05:31:43;;;;;;;;;32.25;30.25;;;;;10.03;73.54;102527.00;5029720;28;11195;-68
2023/04/09 05:34:19;;;;;;;;;32.00;25.75;;;;;10.07;73.78;102525.69;5021590;28;11519;-70
2023/04/09 05:36:49;;;;;;;;;36.25;30.75;;;;;10.06;73.29;102518.63;5008808;28;11274;-68
2023/04/09 05:39:18;;;;;;;;;27.50;26.00;;;;;10.07;72.88;102520.31;5010265;28;11151;-68
2023/04/09 05:41:45;;;;;;;;;35.00;30.75;;;;;10.05;73.09;102528.53;5019231;28;11202;-69
2023/04/09 05:44:20;;;;;;;;;26.00;23.50;;;;;10.01;73.02;102526.31;5020887;28;11350;-69
2023/04/09 05:46:48;;;;;;;;;35.25;27.75;;;;;9.96;72.89;102523.19;5026495;28;11289;-69
2023/04/09 05:49:19;;;;;;;;;43.25;32.75;;;;;9.89;73.46;102526.50;5026370;28;11518;-68
2023/04/09 05:51:50;;;;;;;;;48.50;38.25;;;;;9.80;73.57;102523.81;5029238;28;11530;-68
2023/04/09 05:54:22;;;;;;;;;34.00;29.25;;;;;9.74;73.77;102522.59;5031216;28;11528;-69
2023/04/09 05:56:51;;;;;;;;;40.50;31.00;;;;;9.79;74.12;102522.97;5022430;28;11556;-67
2023/04/09 05:59:18;;;;;;;;;35.50;32.25;;;;;9.84;73.68;102531.47;5031327;28;11304;-69
2023/04/09 06:01:45;;;;;;;;;38.00;36.00;;;;;9.83;73.89;102519.00;5031895;28;11612;-68
2023/04/09 06:04:11;;;;;;;;;39.50;35.25;;;;;9.79;73.58;102522.97;5032339;28;11553;-68
2023/04/09 06:06:38;;;;;;;;;46.25;33.25;;;;;9.78;73.58;102529.38;5024033;28;11542;-67
2023/04/09 06:09:04;;;;;;;;;35.50;32.25;;;;;9.82;73.71;102540.69;5026956;28;11556;-69
2023/04/09 06:11:31;;;;;;;;;38.75;33.00;;;;;9.81;73.91;102539.00;5011947;28;12319;-70
2023/04/09 06:13:59;;;;;;;;;42.75;33.50;;;;;9.83;73.99;102537.81;5015019;28;12264;-67
2023/04/09 06:16:25;;;;;;;;;31.75;28.75;;;;;9.86;73.89;102544.75;5026019;28;11544;-70
2023/04/09 06:18:53;;;;;;;;;44.50;35.00;;;;;9.87;73.64;102533.84;5025752;28;11553;-69
2023/04/09 06:21:19;;;;;;;;;39.75;34.75;;;;;9.85;73.66;102537.69;5032652;28;11512;-69
2023/04/09 06:23:46;;;;;;;;;36.50;33.00;;;;;9.81;74.00;102549.75;5032258;28;11976;-69
2023/04/09 06:26:13;;;;;;;;;35.25;26.50;;;;;9.80;74.03;102548.91;5032078;28;11624;-68
2023/04/09 06:28:39;;;;;;;;;37.00;33.00;;;;;9.83;74.28;102547.75;5025881;28;11298;-70
2023/04/09 06:31:06;;;;;;;;;42.25;35.00;;;;;9.89;73.93;102553.41;5024070;28;11095;-69
2023/04/09 06:33:32;;;;;;;;;40.25;28.00;;;;;9.94;73.77;102550.25;5020523;28;11524;-68
2023/04/09 06:35:59;;;;;;;;;33.75;28.50;;;;;9.99;73.32;102549.81;5031931;28;11352;-69
2023/04/09 06:38:25;;;;;;;;;36.00;29.50;;;;;9.93;73.29;102545.88;5022346;28;12468;-69
2023/04/09 06:40:54;;;;;;;;;40.75;35.50;;;;;9.94;73.61;102539.50;5031715;28;11623;-68
2023/04/09 06:43:20;;;;;;;;;32.00;32.00;;;;;9.97;73.47;102541.06;5030991;28;11498;-69
2023/04/09 06:45:49;;;;;;;;;23.75;23.25;;;;;10.00;73.92;102543.41;5025618;28;11562;-70
2023/04/09 06:48:15;;;;;;;;;36.50;28.25;;;;;10.03;73.36;102546.66;5022572;28;11627;-67
2023/04/09 06:50:43;;;;;;;;;40.25;36.25;;;;;9.99;72.92;102547.13;5031210;28;11625;-69
2023/04/09 06:53:09;;;;;;;;;38.00;26.25;;;;;9.95;73.00;102548.41;5032019;28;11628;-69
2023/04/09 06:55:36;;;;;;;;;33.50;32.75;;;;;9.95;73.53;102551.94;5030169;28;11211;-68
2023/04/09 06:58:02;;;;;;;;;35.75;28.50;;;;;9.98;73.57;102542.75;5027203;28;11240;-69
2023/04/09 07:00:30;;;;;;;;;28.50;25.50;;;;;10.00;73.89;102538.88;5028099;28;11504;-69
2023/04/09 07:02:56;;;;;;;;;30.75;24.25;;;;;10.04;73.19;102539.44;5031611;28;11274;-69
2023/04/09 07:05:23;;;;;;;;;30.00;29.25;;;;;10.05;73.64;102544.69;5018242;28;11314;-69
2023/04/09 07:07:50;;;;;;;;;33.00;29.00;;;;;10.04;73.76;102559.13;5014854;28;11968;-68
2023/04/09 07:10:16;;;;;;;;;29.75;28.75;;;;;10.06;73.38;102550.91;5024348;28;11519;-68
2023/04/09 07:12:42;;;;;;;;;31.50;25.75;;;;;10.09;73.21;102539.84;5030703;28;11380;-69
2023/04/09 07:15:09;;;;;;;;;32.25;27.00;;;;;10.09;73.25;102548.78;5027038;28;11995;-68
2023/04/09 07:17:35;;;;;;;;;30.25;26.50;;;;;10.10;73.33;102542.38;5013136;28;11312;-69
2023/04/09 07:20:02;;;;;;;;;31.50;30.50;;;;;10.08;72.91;102541.69;5024265;28;11296;-68
2023/04/09 07:22:29;;;;;;;;;40.50;31.00;;;;;10.08;73.04;102541.69;5021056;28;11195;-68
2023/04/09 07:24:56;;;;;;;;;36.25;33.75;;;;;10.03;72.84;102549.34;5030672;28;11190;-67
2023/04/09 07:27:26;;;;;;;;;36.50;29.25;;;;;10.00;72.52;102546.97;5031275;28;11508;-69
2023/04/09 07:29:54;;;;;;;;;35.75;29.25;;;;;10.03;73.33;102553.91;5023056;28;11422;-68
2023/04/09 07:32:21;;;;;;;;;33.75;32.00;;;;;9.96;72.67;102553.63;5023878;28;11327;-68
2023/04/09 07:34:49;;;;;;;;;31.50;26.75;;;;;9.94;72.75;102552.09;5026038;28;11552;-68
2023/04/09 07:37:16;;;;;;;;;36.25;26.00;;;;;9.98;73.00;102554.34;5021746;28;11279;-68
2023/04/09 07:39:42;;;;;;;;;40.75;32.50;;;;;10.00;73.01;102554.19;5027820;28;11185;-67
2023/04/09 07:42:09;;;;;;;;;46.50;33.00;;;;;10.05;72.88;102557.28;5026636;28;11508;-69
2023/04/09 07:44:36;;;;;;;;;38.25;31.75;;;;;10.04;72.56;102556.41;5030499;28;11220;-69
2023/04/09 07:47:04;;;;;;;;;40.00;29.75;;;;;10.06;72.70;102556.28;5030884;28;11515;-68
2023/04/09 07:49:31;;;;;;;;;33.25;26.75;;;;;10.09;72.62;102550.63;5030829;28;11284;-69
2023/04/09 07:51:59;;;;;;;;;34.75;27.75;;;;;10.09;72.43;102551.47;5028910;28;11115;-67
2023/04/09 07:54:25;;;;;;;;;38.50;27.25;;;;;10.06;71.86;102546.38;5024694;28;11409;-70
2023/04/09 07:56:52;;;;;;;;;39.50;34.50;;;;;10.00;72.39;102555.03;5018186;28;12070;-70
2023/04/09 07:59:18;;;;;;;;;41.25;32.25;;;;;10.01;72.07;102553.22;5016031;28;11356;-69
2023/04/09 08:01:44;;;;;;;;;33.25;26.50;;;;;9.98;72.33;102550.81;5030784;28;11654;-70
2023/04/09 08:04:11;;;;;;;;;33.50;27.75;;;;;9.94;72.02;102550.25;5029851;28;11993;-69
2023/04/09 08:06:39;;;;;;;;;41.50;32.50;;;;;9.89;71.89;102549.84;5029681;28;11305;-69
2023/04/09 08:09:05;;;;;;;;;35.25;31.00;;;;;9.91;72.43;102550.53;5026324;28;11233;-69
2023/04/09 08:11:32;;;;;;;;;31.75;28.00;;;;;9.95;72.19;102548.41;5020766;28;11549;-68
2023/04/09 08:14:01;;;;;;;;;42.00;32.50;;;;;9.97;72.01;102560.72;5025510;28;11161;-71
2023/04/09 08:16:29;;;;;;;;;34.25;27.00;;;;;9.96;72.17;102550.94;5012615;28;11516;-68
2023/04/09 08:18:56;;;;;;;;;28.75;22.75;;;;;10.03;72.42;102553.91;5012227;28;11684;-69
2023/04/09 08:21:23;;;;;;;;;29.25;25.00;;;;;10.03;71.88;102552.03;5023128;28;11851;-70
2023/04/09 08:23:50;;;;;;;;;35.00;29.00;;;;;10.04;72.14;102555.56;5028808;28;11307;-70
2023/04/09 08:26:16;;;;;;;;;38.75;27.00;;;;;10.03;71.97;102557.44;5029928;28;11232;-70
2023/04/09 08:28:43;;;;;;;;;42.00;39.50;;;;;10.04;72.55;102551.03;5029172;28;11776;-69
2023/04/09 08:31:09;;;;;;;;;34.75;33.50;;;;;10.03;71.61;102551.19;5022727;28;11521;-69
2023/04/09 08:33:36;;;;;;;;;37.50;32.00;;;;;9.97;71.78;102551.81;5027831;28;11514;-69
2023/04/09 08:36:07;;;;;;;;;39.25;36.25;;;;;9.95;72.27;102554.63;5028653;28;11566;-69
2023/04/09 08:38:33;;;;;;;;;31.75;27.00;;;;;9.96;72.14;102548.25;5030018;28;11547;-69
2023/04/09 08:41:00;;;;;;;;;31.00;28.50;;;;;10.00;71.82;102543.41;5030055;28;11095;-70
2023/04/09 08:43:27;;;;;;;;;31.75;27.75;;;;;9.97;71.82;102557.19;5025761;28;11236;-70
2023/04/09 08:46:17;;;;;;;;;37.50;33.50;;;;;9.97;72.07;102547.28;5010217;28;11310;-69
2023/04/09 08:48:45;;;;;;;;;39.75;34.50;;;;;9.99;71.85;102555.19;5012040;28;11582;-70
2023/04/09 08:51:16;;;;;;;;;41.00;34.50;;;;;10.03;71.78;102559.28;5020711;28;11635;-68
2023/04/09 08:53:49;;;;;;;;;32.50;28.75;;;;;10.07;71.78;102555.28;5016369;28;11667;-67
2023/04/09 08:56:15;;;;;;;;;27.75;27.25;;;;;10.10;71.84;102553.16;5020741;28;11230;-69
2023/04/09 08:58:43;;;;;;;;;38.75;33.75;;;;;10.14;72.12;102554.53;5030384;28;11275;-68
2023/04/09 09:01:26;;;;;;;;;37.50;31.25;;;;;10.15;71.66;102553.53;5021253;28;11351;-69
2023/04/09 09:04:00;;;;;;;;;36.50;33.50;;;;;10.14;71.37;102551.84;5021480;28;11235;-68
2023/04/09 09:06:28;;;;;;;;;39.75;32.25;;;;;10.13;71.46;102544.78;5010592;28;12083;-69
2023/04/09 09:09:12;;;;;;;;;40.50;36.00;;;;;10.20;71.01;102542.31;5014313;28;11652;-67
2023/04/09 09:11:43;;;;;;;;;38.00;34.25;;;;;10.20;71.54;102536.94;5025828;28;11513;-69
2023/04/09 09:14:15;;;;;;;;;45.25;38.25;;;;;10.25;71.14;102533.81;5028640;28;11514;-69
2023/04/09 09:17:02;;;;;;;;;36.75;32.25;;;;;10.37;71.55;102540.69;5029787;28;11523;-68
2023/04/09 09:19:32;;;;;;;;;39.00;30.25;;;;;10.52;70.94;102535.66;5029955;28;11539;-68
2023/04/09 09:22:01;;;;;;;;;40.75;31.00;;;;;10.57;70.40;102542.28;5027386;28;11128;-69
2023/04/09 09:24:28;;;;;;;;;50.00;40.25;;;;;10.64;70.02;102529.03;5019082;28;11277;-69
2023/04/09 09:26:56;;;;;;;;;40.50;34.25;;;;;10.66;69.79;102535.13;5019477;28;12308;-70
2023/04/09 09:29:22;;;;;;;;;38.25;33.50;;;;;10.68;69.56;102540.34;5020583;28;11595;-69
2023/04/09 09:31:50;;;;;;;;;41.50;36.50;;;;;10.70;69.24;102544.59;5033203;28;12000;-69
2023/04/09 09:34:19;;;;;;;;;34.75;31.50;;;;;10.75;69.68;102539.59;5031901;28;11338;-69
2023/04/09 09:36:45;;;;;;;;;41.75;36.00;;;;;10.77;69.02;102540.28;5033396;28;11214;-69
2023/04/09 09:39:16;;;;;;;;;43.50;36.25;;;;;10.78;68.95;102536.59;5032189;28;11524;-69
2023/04/09 09:41:44;;;;;;;;;40.50;32.50;;;;;10.82;69.58;102531.75;5025891;28;11158;-69
2023/04/09 09:44:28;;;;;;;;;44.25;36.50;;;;;10.84;68.96;102529.75;5020804;28;12120;-70
2023/04/09 09:46:57;;;;;;;;;39.25;35.75;;;;;10.86;67.92;102522.38;5023052;28;11178;-69
2023/04/09 09:49:23;;;;;;;;;42.25;37.75;;;;;10.87;68.28;102526.75;5026246;28;11142;-70
2023/04/09 09:51:55;;;;;;;;;46.75;41.25;;;;;10.93;68.52;102533.34;5012399;28;11504;-68
2023/04/09 09:54:24;;;;;;;;;49.00;37.75;;;;;10.98;67.92;102531.91;5028600;28;11541;-69
2023/04/09 09:56:54;;;;;;;;;47.50;38.25;;;;;11.03;68.01;102531.44;5025096;28;11951;-69
2023/04/09 09:59:22;;;;;;;;;41.25;37.00;;;;;11.07;67.86;102524.72;5023683;28;11587;-69
2023/04/09 10:02:04;;;;;;;;;51.75;37.75;;;;;11.02;67.21;102519.81;5024361;28;11224;-68
2023/04/09 10:04:34;;;;;;;;;42.00;36.25;;;;;11.01;67.46;102517.25;5020413;28;12440;-69
2023/04/09 10:07:04;;;;;;;;;45.50;35.00;;;;;11.03;68.08;102508.00;5027287;28;11166;-69
2023/04/09 10:09:34;;;;;;;;;38.50;35.25;;;;;11.03;67.60;102508.00;5030158;28;11154;-69
2023/04/09 10:12:05;;;;;;;;;45.00;38.75;;;;;11.04;67.63;102511.56;5030214;28;11124;-67
2023/04/09 10:14:34;;;;;;;;;49.00;35.50;;;;;11.00;67.56;102504.78;5030220;28;11556;-68
2023/04/09 10:17:02;;;;;;;;;51.50;41.00;;;;;10.91;67.75;102503.88;5026184;28;11356;-70
2023/04/09 10:19:30;;;;;;;;;38.75;33.75;;;;;10.92;68.39;102502.03;5026198;28;11619;-68
2023/04/09 10:22:01;;;;;;;;;45.75;41.75;;;;;10.98;67.61;102491.47;5028089;28;11240;-68
2023/04/09 10:24:27;;;;;;;;;50.00;39.50;;;;;11.00;68.03;102491.31;5024698;28;11560;-69
2023/04/09 10:26:54;;;;;;;;;48.00;42.25;;;;;11.07;67.37;102482.44;5024570;28;11532;-67
2023/04/09 10:29:27;;;;;;;;;45.00;42.75;;;;;11.07;67.28;102481.59;5026634;28;11547;-67
2023/04/09 10:32:05;;;;;;;;;39.25;35.75;;;;;11.05;67.24;102479.03;5011402;28;11562;-66
2023/04/09 10:34:39;;;;;;;;;41.50;38.75;;;;;11.07;67.28;102487.00;5020721;28;11216;-69
2023/04/09 10:37:13;;;;;;;;;42.50;37.75;;;;;11.07;68.17;102481.59;5029470;28;11558;-68
2023/04/09 10:39:43;;;;;;;;;41.50;37.25;;;;;11.14;67.61;102474.59;5026852;28;11216;-70
2023/04/09 10:42:17;;;;;;;;;33.75;29.50;;;;;11.29;67.68;102475.69;5028514;28;11883;-66
2023/04/09 10:44:44;;;;;;;;;49.00;40.00;;;;;11.41;66.18;102464.63;5029901;28;10981;-67
2023/04/09 10:47:29;;;;;;;;;44.00;37.75;;;;;11.60;66.96;102461.69;5025638;28;12060;-66
2023/04/09 10:49:56;;;;;;;;;41.00;34.00;;;;;11.97;65.39;102457.84;5005459;28;11305;-68
2023/04/09 10:52:29;;;;;;;;;42.75;37.00;;;;;12.25;64.24;102453.00;5012299;28;11003;-67
2023/04/09 10:54:56;;;;;;;;;56.75;42.50;;;;;12.42;63.32;102461.97;5023005;28;11064;-66
2023/04/09 10:57:23;;;;;;;;;51.75;42.75;;;;;12.46;62.86;102460.63;5031056;28;11957;-66
2023/04/09 10:59:54;;;;;;;;;46.25;40.75;;;;;12.45;63.36;102450.84;5022104;28;11199;-70
2023/04/09 11:02:26;;;;;;;;;46.75;39.00;;;;;12.48;63.77;102455.94;5025370;28;11547;-67
2023/04/09 11:05:16;;;;;;;;;47.75;39.75;;;;;12.49;62.84;102452.22;5031094;28;10988;-67
2023/04/09 11:07:45;;;;;;;;;42.50;36.25;;;;;12.46;63.24;102450.69;5024074;28;11450;-68
2023/04/09 11:10:12;;;;;;;;;48.75;42.50;;;;;12.45;63.76;102453.56;5031589;28;11678;-69
2023/04/09 11:12:39;;;;;;;;;43.00;41.00;;;;;12.40;62.96;102445.09;5030593;28;11243;-69
2023/04/09 11:15:14;;;;;;;;;52.50;41.75;;;;;12.51;63.14;102442.06;5029981;28;11044;-70
2023/04/09 11:17:40;;;;;;;;;56.25;44.25;;;;;12.55;62.31;102440.72;5031687;28;11546;-70
2023/04/09 11:20:07;;;;;;;;;48.75;42.25;;;;;12.61;62.42;102440.06;5031444;28;11536;-69
2023/04/09 11:22:33;;;;;;;;;44.00;41.75;;;;;12.77;62.63;102439.22;5030617;28;11201;-66